sensor_id;sensor_type;location;lat;lon;timestamp;P1;durP1;ratioP1;P2;durP2;ratioP2
39882;SDS011;55824;52.220;21.040;2023-01-28T00:00:35;14.55;;;11.68;;
39882;SDS011;55824;52.220;21.040;2023-01-28T00:03:01;13.88;;;11.48;;
39882;SDS011;55824;52.220;21.040;2023-01-28T00:05:27;13.73;;;11.63;;
39882;SDS011;55824;52.220;21.040;2023-01-28T00:07:54;13.05;;;11.52;;
39882;SDS011;55824;52.220;21.040;2023-01-28T00:10:21;13.57;;;11.95;;
39882;SDS011;55824;52.220;21.040;2023-01-28T00:12:47;12.38;;;10.82;;
39882;SDS011;55824;52.220;21.040;2023-01-28T00:15:14;12.80;;;11.23;;
39882;SDS011;55824;52.220;21.040;2023-01-28T00:17:40;13.25;;;11.27;;
39882;SDS011;55824;52.220;21.040;2023-01-28T00:20:06;14.05;;;11.55;;
39882;SDS011;55824;52.220;21.040;2023-01-28T00:22:32;13.80;;;11.68;;
39882;SDS011;55824;52.220;21.040;2023-01-28T00:24:58;12.68;;;10.60;;
39882;SDS011;55824;52.220;21.040;2023-01-28T00:27:24;13.15;;;11.30;;
39882;SDS011;55824;52.220;21.040;2023-01-28T00:29:50;13.85;;;11.50;;
39882;SDS011;55824;52.220;21.040;2023-01-28T00:32:19;12.82;;;11.05;;
39882;SDS011;55824;52.220;21.040;2023-01-28T00:34:45;14.27;;;11.68;;
39882;SDS011;55824;52.220;21.040;2023-01-28T00:37:11;13.93;;;10.60;;
39882;SDS011;55824;52.220;21.040;2023-01-28T00:39:37;13.05;;;10.70;;
39882;SDS011;55824;52.220;21.040;2023-01-28T00:42:03;12.60;;;10.45;;
39882;SDS011;55824;52.220;21.040;2023-01-28T00:44:29;13.25;;;10.98;;
39882;SDS011;55824;52.220;21.040;2023-01-28T00:46:55;13.70;;;11.13;;
39882;SDS011;55824;52.220;21.040;2023-01-28T00:49:21;12.73;;;10.80;;
39882;SDS011;55824;52.220;21.040;2023-01-28T00:51:47;12.55;;;11.15;;
39882;SDS011;55824;52.220;21.040;2023-01-28T00:54:13;13.85;;;12.40;;
39882;SDS011;55824;52.220;21.040;2023-01-28T00:56:39;13.63;;;11.32;;
39882;SDS011;55824;52.220;21.040;2023-01-28T00:59:05;13.57;;;10.93;;
39882;SDS011;55824;52.220;21.040;2023-01-28T01:01:31;13.35;;;11.18;;
39882;SDS011;55824;52.220;21.040;2023-01-28T01:03:57;13.60;;;10.88;;
39882;SDS011;55824;52.220;21.040;2023-01-28T01:06:27;12.88;;;11.10;;
39882;SDS011;55824;52.220;21.040;2023-01-28T01:08:54;13.43;;;10.48;;
39882;SDS011;55824;52.220;21.040;2023-01-28T01:11:20;12.05;;;10.25;;
39882;SDS011;55824;52.220;21.040;2023-01-28T01:13:52;11.65;;;10.45;;
39882;SDS011;55824;52.220;21.040;2023-01-28T01:16:19;12.75;;;10.88;;
39882;SDS011;55824;52.220;21.040;2023-01-28T01:18:45;11.98;;;10.63;;
39882;SDS011;55824;52.220;21.040;2023-01-28T01:21:15;12.52;;;10.35;;
39882;SDS011;55824;52.220;21.040;2023-01-28T01:23:42;12.45;;;10.65;;
39882;SDS011;55824;52.220;21.040;2023-01-28T01:26:08;12.15;;;10.85;;
39882;SDS011;55824;52.220;21.040;2023-01-28T01:28:35;13.05;;;10.73;;
39882;SDS011;55824;52.220;21.040;2023-01-28T01:31:02;11.88;;;9.85;;
39882;SDS011;55824;52.220;21.040;2023-01-28T01:33:28;11.90;;;10.60;;
39882;SDS011;55824;52.220;21.040;2023-01-28T01:35:55;13.27;;;10.88;;
39882;SDS011;55824;52.220;21.040;2023-01-28T01:38:21;11.45;;;9.75;;
39882;SDS011;55824;52.220;21.040;2023-01-28T01:40:47;13.10;;;10.98;;
39882;SDS011;55824;52.220;21.040;2023-01-28T01:43:17;12.35;;;10.75;;
39882;SDS011;55824;52.220;21.040;2023-01-28T01:48:12;13.05;;;10.20;;
39882;SDS011;55824;52.220;21.040;2023-01-28T01:50:52;13.90;;;10.55;;
39882;SDS011;55824;52.220;21.040;2023-01-28T01:53:19;12.40;;;10.52;;
39882;SDS011;55824;52.220;21.040;2023-01-28T01:55:47;12.77;;;10.48;;
39882;SDS011;55824;52.220;21.040;2023-01-28T01:58:15;12.05;;;10.13;;
39882;SDS011;55824;52.220;21.040;2023-01-28T02:00:43;13.32;;;10.07;;
39882;SDS011;55824;52.220;21.040;2023-01-28T02:03:09;11.73;;;10.30;;
39882;SDS011;55824;52.220;21.040;2023-01-28T02:05:36;11.55;;;9.90;;
39882;SDS011;55824;52.220;21.040;2023-01-28T02:08:02;13.38;;;10.00;;
39882;SDS011;55824;52.220;21.040;2023-01-28T02:10:58;10.98;;;9.45;;
39882;SDS011;55824;52.220;21.040;2023-01-28T02:13:27;11.87;;;9.83;;
39882;SDS011;55824;52.220;21.040;2023-01-28T02:15:53;11.40;;;9.73;;
39882;SDS011;55824;52.220;21.040;2023-01-28T02:18:20;12.38;;;9.32;;
39882;SDS011;55824;52.220;21.040;2023-01-28T02:20:57;11.18;;;9.52;;
39882;SDS011;55824;52.220;21.040;2023-01-28T02:26:14;11.45;;;9.88;;
39882;SDS011;55824;52.220;21.040;2023-01-28T02:33:47;12.00;;;9.98;;
39882;SDS011;55824;52.220;21.040;2023-01-28T02:38:48;10.70;;;9.50;;
39882;SDS011;55824;52.220;21.040;2023-01-28T02:41:20;12.27;;;9.95;;
39882;SDS011;55824;52.220;21.040;2023-01-28T02:43:48;11.02;;;9.45;;
39882;SDS011;55824;52.220;21.040;2023-01-28T02:59:38;10.43;;;8.93;;
39882;SDS011;55824;52.220;21.040;2023-01-28T03:02:11;11.82;;;9.65;;
39882;SDS011;55824;52.220;21.040;2023-01-28T03:07:06;10.80;;;9.38;;
39882;SDS011;55824;52.220;21.040;2023-01-28T03:09:32;10.00;;;8.65;;
39882;SDS011;55824;52.220;21.040;2023-01-28T03:14:48;10.15;;;8.60;;
39882;SDS011;55824;52.220;21.040;2023-01-28T03:20:24;9.90;;;8.00;;
39882;SDS011;55824;52.220;21.040;2023-01-28T03:23:11;9.35;;;7.78;;
39882;SDS011;55824;52.220;21.040;2023-01-28T03:25:58;10.15;;;8.30;;
39882;SDS011;55824;52.220;21.040;2023-01-28T03:28:44;10.50;;;8.40;;
39882;SDS011;55824;52.220;21.040;2023-01-28T03:31:29;10.30;;;8.32;;
39882;SDS011;55824;52.220;21.040;2023-01-28T03:34:14;10.68;;;8.82;;
39882;SDS011;55824;52.220;21.040;2023-01-28T03:36:59;9.70;;;8.00;;
39882;SDS011;55824;52.220;21.040;2023-01-28T03:39:26;8.50;;;7.40;;
39882;SDS011;55824;52.220;21.040;2023-01-28T03:42:01;9.88;;;7.85;;
39882;SDS011;55824;52.220;21.040;2023-01-28T03:44:27;10.05;;;8.35;;
39882;SDS011;55824;52.220;21.040;2023-01-28T03:47:12;10.02;;;8.35;;
39882;SDS011;55824;52.220;21.040;2023-01-28T03:49:39;8.70;;;6.75;;
39882;SDS011;55824;52.220;21.040;2023-01-28T03:52:05;8.63;;;7.28;;
39882;SDS011;55824;52.220;21.040;2023-01-28T03:54:31;9.52;;;8.23;;
39882;SDS011;55824;52.220;21.040;2023-01-28T03:56:57;8.55;;;7.40;;
39882;SDS011;55824;52.220;21.040;2023-01-28T03:59:23;9.52;;;7.68;;
39882;SDS011;55824;52.220;21.040;2023-01-28T04:01:48;8.85;;;7.55;;
39882;SDS011;55824;52.220;21.040;2023-01-28T04:04:15;8.85;;;7.93;;
39882;SDS011;55824;52.220;21.040;2023-01-28T04:06:52;9.52;;;7.28;;
39882;SDS011;55824;52.220;21.040;2023-01-28T04:09:18;8.27;;;7.20;;
39882;SDS011;55824;52.220;21.040;2023-01-28T04:11:44;8.70;;;7.10;;
39882;SDS011;55824;52.220;21.040;2023-01-28T04:14:10;8.77;;;7.03;;
39882;SDS011;55824;52.220;21.040;2023-01-28T04:16:37;8.32;;;7.05;;
39882;SDS011;55824;52.220;21.040;2023-01-28T04:19:03;8.77;;;7.43;;
39882;SDS011;55824;52.220;21.040;2023-01-28T04:21:29;7.93;;;7.13;;
39882;SDS011;55824;52.220;21.040;2023-01-28T04:23:55;8.68;;;6.95;;
39882;SDS011;55824;52.220;21.040;2023-01-28T04:26:21;8.02;;;6.72;;
39882;SDS011;55824;52.220;21.040;2023-01-28T04:28:47;7.85;;;6.28;;
39882;SDS011;55824;52.220;21.040;2023-01-28T04:31:13;8.57;;;7.10;;
39882;SDS011;55824;52.220;21.040;2023-01-28T04:33:39;8.82;;;7.13;;
39882;SDS011;55824;52.220;21.040;2023-01-28T04:36:05;7.28;;;6.18;;
39882;SDS011;55824;52.220;21.040;2023-01-28T04:38:31;7.57;;;6.72;;
39882;SDS011;55824;52.220;21.040;2023-01-28T04:40:57;7.38;;;6.38;;
39882;SDS011;55824;52.220;21.040;2023-01-28T04:43:23;8.43;;;6.55;;
39882;SDS011;55824;52.220;21.040;2023-01-28T04:45:49;7.35;;;6.30;;
39882;SDS011;55824;52.220;21.040;2023-01-28T04:48:15;8.73;;;6.85;;
39882;SDS011;55824;52.220;21.040;2023-01-28T04:50:41;7.82;;;6.80;;
39882;SDS011;55824;52.220;21.040;2023-01-28T04:53:08;8.80;;;6.50;;
39882;SDS011;55824;52.220;21.040;2023-01-28T04:55:34;8.10;;;6.35;;
39882;SDS011;55824;52.220;21.040;2023-01-28T04:58:00;8.32;;;6.85;;
39882;SDS011;55824;52.220;21.040;2023-01-28T05:00:26;7.78;;;6.28;;
39882;SDS011;55824;52.220;21.040;2023-01-28T05:02:52;7.60;;;6.40;;
39882;SDS011;55824;52.220;21.040;2023-01-28T05:05:18;6.82;;;5.63;;
39882;SDS011;55824;52.220;21.040;2023-01-28T05:07:49;7.65;;;6.20;;
39882;SDS011;55824;52.220;21.040;2023-01-28T05:10:15;7.05;;;6.03;;
39882;SDS011;55824;52.220;21.040;2023-01-28T05:12:45;7.95;;;6.38;;
39882;SDS011;55824;52.220;21.040;2023-01-28T05:15:11;7.22;;;5.88;;
39882;SDS011;55824;52.220;21.040;2023-01-28T05:17:37;7.35;;;5.93;;
39882;SDS011;55824;52.220;21.040;2023-01-28T05:20:04;7.07;;;5.43;;
39882;SDS011;55824;52.220;21.040;2023-01-28T05:22:30;6.95;;;5.80;;
39882;SDS011;55824;52.220;21.040;2023-01-28T05:24:56;7.05;;;5.85;;
39882;SDS011;55824;52.220;21.040;2023-01-28T05:27:22;7.18;;;5.65;;
39882;SDS011;55824;52.220;21.040;2023-01-28T05:29:48;6.88;;;5.65;;
39882;SDS011;55824;52.220;21.040;2023-01-28T05:32:14;6.55;;;5.53;;
39882;SDS011;55824;52.220;21.040;2023-01-28T05:34:40;7.00;;;6.22;;
39882;SDS011;55824;52.220;21.040;2023-01-28T05:37:06;7.20;;;5.55;;
39882;SDS011;55824;52.220;21.040;2023-01-28T05:39:32;6.50;;;5.57;;
39882;SDS011;55824;52.220;21.040;2023-01-28T05:41:58;7.43;;;6.35;;
39882;SDS011;55824;52.220;21.040;2023-01-28T05:44:24;6.57;;;5.57;;
39882;SDS011;55824;52.220;21.040;2023-01-28T05:46:50;6.88;;;5.35;;
39882;SDS011;55824;52.220;21.040;2023-01-28T05:49:16;6.55;;;5.43;;
39882;SDS011;55824;52.220;21.040;2023-01-28T05:51:42;6.60;;;5.78;;
39882;SDS011;55824;52.220;21.040;2023-01-28T05:54:08;7.85;;;5.70;;
39882;SDS011;55824;52.220;21.040;2023-01-28T05:56:34;7.22;;;5.68;;
39882;SDS011;55824;52.220;21.040;2023-01-28T05:59:01;6.97;;;5.43;;
39882;SDS011;55824;52.220;21.040;2023-01-28T06:01:27;6.07;;;5.13;;
39882;SDS011;55824;52.220;21.040;2023-01-28T06:03:53;6.72;;;5.35;;
39882;SDS011;55824;52.220;21.040;2023-01-28T06:06:19;6.13;;;5.10;;
39882;SDS011;55824;52.220;21.040;2023-01-28T06:08:45;6.47;;;5.00;;
39882;SDS011;55824;52.220;21.040;2023-01-28T06:11:11;7.75;;;5.60;;
39882;SDS011;55824;52.220;21.040;2023-01-28T06:13:37;7.43;;;5.93;;
39882;SDS011;55824;52.220;21.040;2023-01-28T06:16:05;6.63;;;5.05;;
39882;SDS011;55824;52.220;21.040;2023-01-28T06:18:31;7.50;;;5.88;;
39882;SDS011;55824;52.220;21.040;2023-01-28T06:20:57;6.93;;;5.90;;
39882;SDS011;55824;52.220;21.040;2023-01-28T06:23:23;6.03;;;5.03;;
39882;SDS011;55824;52.220;21.040;2023-01-28T06:25:53;7.00;;;5.80;;
39882;SDS011;55824;52.220;21.040;2023-01-28T06:28:19;6.03;;;5.00;;
39882;SDS011;55824;52.220;21.040;2023-01-28T06:30:49;6.05;;;5.00;;
39882;SDS011;55824;52.220;21.040;2023-01-28T06:33:15;6.53;;;5.63;;
39882;SDS011;55824;52.220;21.040;2023-01-28T06:35:41;6.10;;;5.18;;
39882;SDS011;55824;52.220;21.040;2023-01-28T06:38:08;8.80;;;5.88;;
39882;SDS011;55824;52.220;21.040;2023-01-28T06:40:34;7.32;;;5.70;;
39882;SDS011;55824;52.220;21.040;2023-01-28T06:43:00;6.85;;;4.95;;
39882;SDS011;55824;52.220;21.040;2023-01-28T06:45:26;7.18;;;5.30;;
39882;SDS011;55824;52.220;21.040;2023-01-28T06:47:52;7.47;;;5.35;;
39882;SDS011;55824;52.220;21.040;2023-01-28T06:50:18;7.10;;;5.47;;
39882;SDS011;55824;52.220;21.040;2023-01-28T06:52:44;6.65;;;5.38;;
39882;SDS011;55824;52.220;21.040;2023-01-28T06:55:10;7.07;;;5.32;;
39882;SDS011;55824;52.220;21.040;2023-01-28T06:57:36;6.63;;;5.53;;
39882;SDS011;55824;52.220;21.040;2023-01-28T07:00:03;7.57;;;5.75;;
39882;SDS011;55824;52.220;21.040;2023-01-28T07:02:30;6.80;;;5.32;;
39882;SDS011;55824;52.220;21.040;2023-01-28T07:04:56;5.88;;;5.07;;
39882;SDS011;55824;52.220;21.040;2023-01-28T07:07:22;6.50;;;5.30;;
39882;SDS011;55824;52.220;21.040;2023-01-28T07:09:48;7.65;;;5.30;;
39882;SDS011;55824;52.220;21.040;2023-01-28T07:12:14;7.20;;;5.28;;
39882;SDS011;55824;52.220;21.040;2023-01-28T07:14:40;6.93;;;5.18;;
39882;SDS011;55824;52.220;21.040;2023-01-28T07:17:06;7.18;;;5.63;;
39882;SDS011;55824;52.220;21.040;2023-01-28T07:19:32;6.78;;;5.28;;
39882;SDS011;55824;52.220;21.040;2023-01-28T07:21:58;7.05;;;5.35;;
39882;SDS011;55824;52.220;21.040;2023-01-28T07:24:26;7.60;;;5.65;;
39882;SDS011;55824;52.220;21.040;2023-01-28T07:26:52;6.88;;;4.53;;
39882;SDS011;55824;52.220;21.040;2023-01-28T07:29:19;5.55;;;4.72;;
39882;SDS011;55824;52.220;21.040;2023-01-28T07:31:45;6.40;;;5.35;;
39882;SDS011;55824;52.220;21.040;2023-01-28T07:34:11;6.10;;;5.25;;
39882;SDS011;55824;52.220;21.040;2023-01-28T07:36:37;6.97;;;5.13;;
39882;SDS011;55824;52.220;21.040;2023-01-28T07:39:03;6.72;;;5.07;;
39882;SDS011;55824;52.220;21.040;2023-01-28T07:41:29;6.30;;;5.25;;
39882;SDS011;55824;52.220;21.040;2023-01-28T07:43:55;6.82;;;5.60;;
39882;SDS011;55824;52.220;21.040;2023-01-28T07:46:21;6.72;;;5.10;;
39882;SDS011;55824;52.220;21.040;2023-01-28T07:48:47;6.43;;;5.50;;
39882;SDS011;55824;52.220;21.040;2023-01-28T07:51:13;6.95;;;5.35;;
39882;SDS011;55824;52.220;21.040;2023-01-28T07:53:39;7.25;;;5.47;;
39882;SDS011;55824;52.220;21.040;2023-01-28T07:56:05;8.18;;;6.18;;
39882;SDS011;55824;52.220;21.040;2023-01-28T07:58:31;6.60;;;5.35;;
39882;SDS011;55824;52.220;21.040;2023-01-28T08:00:59;6.80;;;5.38;;
39882;SDS011;55824;52.220;21.040;2023-01-28T08:03:25;6.95;;;5.63;;
39882;SDS011;55824;52.220;21.040;2023-01-28T08:05:51;6.70;;;5.25;;
39882;SDS011;55824;52.220;21.040;2023-01-28T08:08:19;6.43;;;5.30;;
39882;SDS011;55824;52.220;21.040;2023-01-28T08:10:45;6.75;;;5.43;;
39882;SDS011;55824;52.220;21.040;2023-01-28T08:13:12;6.55;;;5.00;;
39882;SDS011;55824;52.220;21.040;2023-01-28T08:15:38;7.13;;;5.07;;
39882;SDS011;55824;52.220;21.040;2023-01-28T08:18:05;5.97;;;4.75;;
39882;SDS011;55824;52.220;21.040;2023-01-28T08:20:31;6.65;;;5.10;;
39882;SDS011;55824;52.220;21.040;2023-01-28T08:23:07;6.53;;;4.82;;
39882;SDS011;55824;52.220;21.040;2023-01-28T08:25:34;6.25;;;4.88;;
39882;SDS011;55824;52.220;21.040;2023-01-28T08:28:00;6.03;;;4.55;;
39882;SDS011;55824;52.220;21.040;2023-01-28T08:30:26;6.22;;;4.78;;
39882;SDS011;55824;52.220;21.040;2023-01-28T08:32:54;7.35;;;4.88;;
39882;SDS011;55824;52.220;21.040;2023-01-28T08:35:21;6.93;;;5.20;;
39882;SDS011;55824;52.220;21.040;2023-01-28T08:37:47;6.63;;;5.07;;
39882;SDS011;55824;52.220;21.040;2023-01-28T08:40:13;5.45;;;4.45;;
39882;SDS011;55824;52.220;21.040;2023-01-28T08:42:39;5.35;;;4.47;;
39882;SDS011;55824;52.220;21.040;2023-01-28T08:45:05;7.07;;;4.70;;
39882;SDS011;55824;52.220;21.040;2023-01-28T08:47:31;5.97;;;4.65;;
39882;SDS011;55824;52.220;21.040;2023-01-28T08:49:57;5.55;;;4.32;;
39882;SDS011;55824;52.220;21.040;2023-01-28T08:52:23;5.63;;;4.47;;
39882;SDS011;55824;52.220;21.040;2023-01-28T08:54:49;6.82;;;4.97;;
39882;SDS011;55824;52.220;21.040;2023-01-28T08:57:15;5.82;;;4.50;;
39882;SDS011;55824;52.220;21.040;2023-01-28T08:59:41;6.70;;;4.28;;
39882;SDS011;55824;52.220;21.040;2023-01-28T09:02:12;6.68;;;4.47;;
39882;SDS011;55824;52.220;21.040;2023-01-28T09:04:38;5.78;;;4.40;;
39882;SDS011;55824;52.220;21.040;2023-01-28T09:07:06;4.97;;;3.92;;
39882;SDS011;55824;52.220;21.040;2023-01-28T09:09:32;5.28;;;3.95;;
39882;SDS011;55824;52.220;21.040;2023-01-28T09:11:58;5.80;;;4.47;;
39882;SDS011;55824;52.220;21.040;2023-01-28T09:14:24;5.95;;;4.18;;
39882;SDS011;55824;52.220;21.040;2023-01-28T09:16:50;4.97;;;4.25;;
39882;SDS011;55824;52.220;21.040;2023-01-28T09:19:15;5.63;;;4.45;;
39882;SDS011;55824;52.220;21.040;2023-01-28T09:21:41;5.55;;;4.10;;
39882;SDS011;55824;52.220;21.040;2023-01-28T09:24:10;5.10;;;3.85;;
39882;SDS011;55824;52.220;21.040;2023-01-28T09:26:36;5.90;;;3.97;;
39882;SDS011;55824;52.220;21.040;2023-01-28T09:29:02;5.40;;;4.10;;
39882;SDS011;55824;52.220;21.040;2023-01-28T09:31:28;5.25;;;3.88;;
39882;SDS011;55824;52.220;21.040;2023-01-28T09:33:54;4.85;;;3.65;;
39882;SDS011;55824;52.220;21.040;2023-01-28T09:36:21;4.68;;;3.65;;
39882;SDS011;55824;52.220;21.040;2023-01-28T09:38:47;4.97;;;3.80;;
39882;SDS011;55824;52.220;21.040;2023-01-28T09:41:25;4.97;;;4.13;;
39882;SDS011;55824;52.220;21.040;2023-01-28T09:46:33;5.72;;;4.10;;
39882;SDS011;55824;52.220;21.040;2023-01-28T09:49:02;5.03;;;3.53;;
39882;SDS011;55824;52.220;21.040;2023-01-28T09:53:56;5.25;;;4.13;;
39882;SDS011;55824;52.220;21.040;2023-01-28T09:56:24;4.80;;;3.90;;
39882;SDS011;55824;52.220;21.040;2023-01-28T09:58:51;5.82;;;4.32;;
39882;SDS011;55824;52.220;21.040;2023-01-28T10:06:53;4.88;;;3.80;;
39882;SDS011;55824;52.220;21.040;2023-01-28T10:12:02;6.30;;;3.92;;
39882;SDS011;55824;52.220;21.040;2023-01-28T10:14:48;4.70;;;3.60;;
39882;SDS011;55824;52.220;21.040;2023-01-28T10:17:25;4.95;;;3.75;;
39882;SDS011;55824;52.220;21.040;2023-01-28T10:20:02;4.85;;;4.07;;
39882;SDS011;55824;52.220;21.040;2023-01-28T10:22:38;4.63;;;4.05;;
39882;SDS011;55824;52.220;21.040;2023-01-28T10:25:05;5.20;;;3.80;;
39882;SDS011;55824;52.220;21.040;2023-01-28T10:27:32;5.28;;;3.65;;
39882;SDS011;55824;52.220;21.040;2023-01-28T10:29:59;4.30;;;3.50;;
39882;SDS011;55824;52.220;21.040;2023-01-28T10:32:36;4.65;;;3.50;;
39882;SDS011;55824;52.220;21.040;2023-01-28T10:35:03;4.28;;;3.50;;
39882;SDS011;55824;52.220;21.040;2023-01-28T10:37:30;5.00;;;3.85;;
39882;SDS011;55824;52.220;21.040;2023-01-28T10:39:58;5.53;;;3.75;;
39882;SDS011;55824;52.220;21.040;2023-01-28T10:42:28;4.82;;;3.50;;
39882;SDS011;55824;52.220;21.040;2023-01-28T10:45:28;5.30;;;4.07;;
39882;SDS011;55824;52.220;21.040;2023-01-28T10:50:23;5.95;;;4.10;;
39882;SDS011;55824;52.220;21.040;2023-01-28T10:52:51;4.00;;;3.38;;
39882;SDS011;55824;52.220;21.040;2023-01-28T10:55:17;4.00;;;3.03;;
39882;SDS011;55824;52.220;21.040;2023-01-28T10:57:43;4.47;;;3.22;;
39882;SDS011;55824;52.220;21.040;2023-01-28T11:00:29;5.75;;;3.58;;
39882;SDS011;55824;52.220;21.040;2023-01-28T11:02:56;4.90;;;3.70;;
39882;SDS011;55824;52.220;21.040;2023-01-28T11:05:23;4.97;;;3.78;;
39882;SDS011;55824;52.220;21.040;2023-01-28T11:08:01;4.53;;;3.70;;
39882;SDS011;55824;52.220;21.040;2023-01-28T11:10:36;6.25;;;3.72;;
39882;SDS011;55824;52.220;21.040;2023-01-28T11:13:04;4.25;;;3.30;;
39882;SDS011;55824;52.220;21.040;2023-01-28T11:15:31;4.63;;;3.40;;
39882;SDS011;55824;52.220;21.040;2023-01-28T11:17:58;4.65;;;3.50;;
39882;SDS011;55824;52.220;21.040;2023-01-28T11:20:26;4.93;;;3.50;;
39882;SDS011;55824;52.220;21.040;2023-01-28T11:22:53;4.47;;;3.28;;
39882;SDS011;55824;52.220;21.040;2023-01-28T11:27:54;4.72;;;3.50;;
39882;SDS011;55824;52.220;21.040;2023-01-28T11:30:30;6.00;;;3.80;;
39882;SDS011;55824;52.220;21.040;2023-01-28T11:35:51;4.07;;;3.30;;
39882;SDS011;55824;52.220;21.040;2023-01-28T11:38:18;5.22;;;3.33;;
39882;SDS011;55824;52.220;21.040;2023-01-28T11:40:51;4.40;;;3.10;;
39882;SDS011;55824;52.220;21.040;2023-01-28T11:43:19;4.00;;;2.85;;
39882;SDS011;55824;52.220;21.040;2023-01-28T11:51:05;4.53;;;3.67;;
39882;SDS011;55824;52.220;21.040;2023-01-28T11:54:08;4.47;;;3.10;;
39882;SDS011;55824;52.220;21.040;2023-01-28T11:59:18;4.85;;;3.50;;
39882;SDS011;55824;52.220;21.040;2023-01-28T12:01:55;4.57;;;3.53;;
39882;SDS011;55824;52.220;21.040;2023-01-28T12:10:08;4.35;;;3.03;;
39882;SDS011;55824;52.220;21.040;2023-01-28T12:15:25;4.50;;;3.40;;
39882;SDS011;55824;52.220;21.040;2023-01-28T12:18:16;4.82;;;3.30;;
39882;SDS011;55824;52.220;21.040;2023-01-28T12:20:58;4.15;;;3.55;;
39882;SDS011;55824;52.220;21.040;2023-01-28T12:26:23;3.97;;;3.20;;
39882;SDS011;55824;52.220;21.040;2023-01-28T12:28:55;4.35;;;3.22;;
39882;SDS011;55824;52.220;21.040;2023-01-28T12:36:56;4.95;;;3.42;;
39882;SDS011;55824;52.220;21.040;2023-01-28T12:41:50;4.78;;;3.22;;
39882;SDS011;55824;52.220;21.040;2023-01-28T12:44:22;4.07;;;3.13;;
39882;SDS011;55824;52.220;21.040;2023-01-28T12:46:55;3.72;;;3.00;;
39882;SDS011;55824;52.220;21.040;2023-01-28T12:54:30;4.18;;;3.10;;
39882;SDS011;55824;52.220;21.040;2023-01-28T12:56:58;4.32;;;3.30;;
39882;SDS011;55824;52.220;21.040;2023-01-28T12:59:31;4.05;;;3.13;;
39882;SDS011;55824;52.220;21.040;2023-01-28T13:07:24;3.72;;;2.72;;
39882;SDS011;55824;52.220;21.040;2023-01-28T13:09:53;3.67;;;2.92;;
39882;SDS011;55824;52.220;21.040;2023-01-28T13:12:19;4.60;;;3.30;;
39882;SDS011;55824;52.220;21.040;2023-01-28T13:14:46;3.92;;;3.05;;
39882;SDS011;55824;52.220;21.040;2023-01-28T13:17:31;4.47;;;3.00;;
39882;SDS011;55824;52.220;21.040;2023-01-28T13:19:57;5.00;;;3.60;;
39882;SDS011;55824;52.220;21.040;2023-01-28T13:24:56;4.13;;;3.10;;
39882;SDS011;55824;52.220;21.040;2023-01-28T13:27:25;4.15;;;3.13;;
39882;SDS011;55824;52.220;21.040;2023-01-28T13:30:02;4.40;;;3.20;;
39882;SDS011;55824;52.220;21.040;2023-01-28T13:32:30;3.83;;;2.80;;
39882;SDS011;55824;52.220;21.040;2023-01-28T13:35:00;4.03;;;3.20;;
39882;SDS011;55824;52.220;21.040;2023-01-28T13:37:32;4.78;;;3.53;;
39882;SDS011;55824;52.220;21.040;2023-01-28T13:40:03;4.75;;;3.10;;
39882;SDS011;55824;52.220;21.040;2023-01-28T13:42:30;4.15;;;3.28;;
39882;SDS011;55824;52.220;21.040;2023-01-28T13:47:51;3.75;;;3.00;;
39882;SDS011;55824;52.220;21.040;2023-01-28T13:50:19;3.42;;;2.80;;
39882;SDS011;55824;52.220;21.040;2023-01-28T13:52:49;4.90;;;3.40;;
39882;SDS011;55824;52.220;21.040;2023-01-28T14:00:24;4.18;;;3.53;;
39882;SDS011;55824;52.220;21.040;2023-01-28T14:13:59;5.20;;;3.60;;
39882;SDS011;55824;52.220;21.040;2023-01-28T14:16:34;4.03;;;3.20;;
39882;SDS011;55824;52.220;21.040;2023-01-28T14:19:03;4.57;;;2.90;;
39882;SDS011;55824;52.220;21.040;2023-01-28T14:21:31;4.65;;;3.33;;
39882;SDS011;55824;52.220;21.040;2023-01-28T14:23:59;4.60;;;3.37;;
39882;SDS011;55824;52.220;21.040;2023-01-28T14:26:34;3.97;;;3.05;;
39882;SDS011;55824;52.220;21.040;2023-01-28T14:29:09;4.20;;;3.30;;
39882;SDS011;55824;52.220;21.040;2023-01-28T14:31:38;3.58;;;2.83;;
39882;SDS011;55824;52.220;21.040;2023-01-28T14:36:30;3.95;;;3.10;;
39882;SDS011;55824;52.220;21.040;2023-01-28T14:38:56;4.40;;;3.22;;
39882;SDS011;55824;52.220;21.040;2023-01-28T14:41:24;3.67;;;3.10;;
39882;SDS011;55824;52.220;21.040;2023-01-28T14:43:51;4.72;;;2.92;;
39882;SDS011;55824;52.220;21.040;2023-01-28T14:46:22;4.65;;;3.75;;
39882;SDS011;55824;52.220;21.040;2023-01-28T14:49:02;4.60;;;3.28;;
39882;SDS011;55824;52.220;21.040;2023-01-28T15:01:30;3.83;;;2.80;;
39882;SDS011;55824;52.220;21.040;2023-01-28T15:03:56;4.07;;;3.08;;
39882;SDS011;55824;52.220;21.040;2023-01-28T15:06:23;4.25;;;2.97;;
39882;SDS011;55824;52.220;21.040;2023-01-28T15:08:53;4.50;;;3.17;;
39882;SDS011;55824;52.220;21.040;2023-01-28T15:11:29;4.97;;;3.40;;
39882;SDS011;55824;52.220;21.040;2023-01-28T15:13:56;4.53;;;2.95;;
39882;SDS011;55824;52.220;21.040;2023-01-28T15:16:23;4.13;;;3.40;;
39882;SDS011;55824;52.220;21.040;2023-01-28T15:18:52;5.07;;;3.05;;
39882;SDS011;55824;52.220;21.040;2023-01-28T15:21:19;4.25;;;3.25;;
39882;SDS011;55824;52.220;21.040;2023-01-28T15:23:47;4.40;;;3.20;;
39882;SDS011;55824;52.220;21.040;2023-01-28T15:26:26;4.15;;;3.22;;
39882;SDS011;55824;52.220;21.040;2023-01-28T15:28:53;3.75;;;2.90;;
39882;SDS011;55824;52.220;21.040;2023-01-28T15:31:21;3.92;;;3.10;;
39882;SDS011;55824;52.220;21.040;2023-01-28T15:36:26;4.65;;;3.28;;
39882;SDS011;55824;52.220;21.040;2023-01-28T15:38:53;4.05;;;2.90;;
39882;SDS011;55824;52.220;21.040;2023-01-28T15:41:20;4.45;;;3.42;;
39882;SDS011;55824;52.220;21.040;2023-01-28T15:43:48;4.68;;;3.60;;
39882;SDS011;55824;52.220;21.040;2023-01-28T15:46:14;4.75;;;3.42;;
39882;SDS011;55824;52.220;21.040;2023-01-28T15:48:41;4.50;;;3.00;;
39882;SDS011;55824;52.220;21.040;2023-01-28T15:51:15;4.57;;;3.05;;
39882;SDS011;55824;52.220;21.040;2023-01-28T15:53:42;4.38;;;3.35;;
39882;SDS011;55824;52.220;21.040;2023-01-28T15:56:10;4.53;;;3.60;;
39882;SDS011;55824;52.220;21.040;2023-01-28T15:58:36;4.10;;;3.30;;
39882;SDS011;55824;52.220;21.040;2023-01-28T16:03:35;4.65;;;3.38;;
39882;SDS011;55824;52.220;21.040;2023-01-28T16:06:07;4.53;;;3.38;;
39882;SDS011;55824;52.220;21.040;2023-01-28T16:08:50;4.25;;;3.42;;
39882;SDS011;55824;52.220;21.040;2023-01-28T16:11:21;5.40;;;3.17;;
39882;SDS011;55824;52.220;21.040;2023-01-28T16:13:48;4.40;;;3.20;;
39882;SDS011;55824;52.220;21.040;2023-01-28T16:16:14;3.53;;;2.90;;
39882;SDS011;55824;52.220;21.040;2023-01-28T16:18:41;4.63;;;3.30;;
39882;SDS011;55824;52.220;21.040;2023-01-28T16:21:11;4.30;;;3.40;;
39882;SDS011;55824;52.220;21.040;2023-01-28T16:23:49;4.05;;;3.00;;
39882;SDS011;55824;52.220;21.040;2023-01-28T16:26:20;3.95;;;2.97;;
39882;SDS011;55824;52.220;21.040;2023-01-28T16:28:46;4.22;;;2.80;;
39882;SDS011;55824;52.220;21.040;2023-01-28T16:31:12;3.55;;;2.67;;
39882;SDS011;55824;52.220;21.040;2023-01-28T16:33:38;4.15;;;3.03;;
39882;SDS011;55824;52.220;21.040;2023-01-28T16:36:04;4.70;;;3.10;;
39882;SDS011;55824;52.220;21.040;2023-01-28T16:38:30;4.90;;;3.10;;
39882;SDS011;55824;52.220;21.040;2023-01-28T16:40:56;3.17;;;2.55;;
39882;SDS011;55824;52.220;21.040;2023-01-28T16:43:23;4.00;;;2.83;;
39882;SDS011;55824;52.220;21.040;2023-01-28T16:45:49;3.75;;;2.90;;
39882;SDS011;55824;52.220;21.040;2023-01-28T16:48:15;4.25;;;3.00;;
39882;SDS011;55824;52.220;21.040;2023-01-28T16:50:41;3.95;;;2.80;;